sensor_id;sensor_type;location;lat;lon;timestamp;pressure;altitude;pressure_sealevel;temperature;humidity
34658;BME280;20865;43.312;27.152;2022-11-15T00:01:17;101295.92;;;16.46;44.32
34658;BME280;20865;43.312;27.152;2022-11-15T00:03:44;101305.88;;;16.44;44.34
34658;BME280;20865;43.312;27.152;2022-11-15T00:06:12;101299.64;;;16.42;44.21
34658;BME280;20865;43.312;27.152;2022-11-15T00:08:40;101297.42;;;16.41;44.25
34658;BME280;20865;43.312;27.152;2022-11-15T00:11:09;101301.42;;;16.43;44.22
34658;BME280;20865;43.312;27.152;2022-11-15T00:13:38;101297.50;;;16.40;44.67
34658;BME280;20865;43.312;27.152;2022-11-15T00:16:06;101290.28;;;16.40;45.00
34658;BME280;20865;43.312;27.152;2022-11-15T00:18:33;101291.55;;;16.42;44.75
34658;BME280;20865;43.312;27.152;2022-11-15T00:21:06;101286.59;;;16.43;44.45
34658;BME280;20865;43.312;27.152;2022-11-15T00:23:34;101290.92;;;16.47;44.36
34658;BME280;20865;43.312;27.152;2022-11-15T00:26:02;101285.41;;;16.50;44.50
34658;BME280;20865;43.312;27.152;2022-11-15T00:28:30;101283.63;;;16.49;44.37
34658;BME280;20865;43.312;27.152;2022-11-15T00:31:02;101281.84;;;16.50;44.29
34658;BME280;20865;43.312;27.152;2022-11-15T00:33:30;101277.36;;;16.49;44.34
34658;BME280;20865;43.312;27.152;2022-11-15T00:36:03;101278.67;;;16.50;44.42
34658;BME280;20865;43.312;27.152;2022-11-15T00:38:35;101281.30;;;16.52;44.41
34658;BME280;20865;43.312;27.152;2022-11-15T00:41:04;101275.31;;;16.55;44.40
34658;BME280;20865;43.312;27.152;2022-11-15T00:43:32;101268.92;;;16.58;44.35
34658;BME280;20865;43.312;27.152;2022-11-15T00:46:01;101266.81;;;16.54;44.34
34658;BME280;20865;43.312;27.152;2022-11-15T00:48:29;101265.39;;;16.56;44.15
34658;BME280;20865;43.312;27.152;2022-11-15T00:50:57;101262.77;;;16.54;44.15
34658;BME280;20865;43.312;27.152;2022-11-15T00:53:25;101266.34;;;16.55;44.44
34658;BME280;20865;43.312;27.152;2022-11-15T00:55:53;101266.34;;;16.55;44.02
34658;BME280;20865;43.312;27.152;2022-11-15T00:58:20;101260.55;;;16.54;44.20
34658;BME280;20865;43.312;27.152;2022-11-15T01:00:48;101269.11;;;16.53;44.31
34658;BME280;20865;43.312;27.152;2022-11-15T01:03:16;101262.89;;;16.51;44.31
34658;BME280;20865;43.312;27.152;2022-11-15T01:05:43;101265.11;;;16.52;44.19
34658;BME280;20865;43.312;27.152;2022-11-15T01:08:15;101265.94;;;16.54;44.09
34658;BME280;20865;43.312;27.152;2022-11-15T01:10:43;101254.40;;;16.50;44.15
34658;BME280;20865;43.312;27.152;2022-11-15T01:13:10;101260.59;;;16.52;44.50
34658;BME280;20865;43.312;27.152;2022-11-15T01:15:41;101255.20;;;16.52;44.66
34658;BME280;20865;43.312;27.152;2022-11-15T01:18:09;101245.75;;;16.52;44.84
34658;BME280;20865;43.312;27.152;2022-11-15T01:20:43;101249.59;;;16.47;44.73
34658;BME280;20865;43.312;27.152;2022-11-15T01:23:11;101249.48;;;16.50;44.95
34658;BME280;20865;43.312;27.152;2022-11-15T01:25:39;101254.91;;;16.48;44.75
34658;BME280;20865;43.312;27.152;2022-11-15T01:28:06;101253.45;;;16.51;45.17
34658;BME280;20865;43.312;27.152;2022-11-15T01:30:35;101244.48;;;16.51;45.45
34658;BME280;20865;43.312;27.152;2022-11-15T01:33:03;101244.01;;;16.51;45.48
34658;BME280;20865;43.312;27.152;2022-11-15T01:35:30;101244.01;;;16.51;45.53
34658;BME280;20865;43.312;27.152;2022-11-15T01:37:58;101242.73;;;16.50;45.08
34658;BME280;20865;43.312;27.152;2022-11-15T01:40:25;101240.55;;;16.48;45.31
34658;BME280;20865;43.312;27.152;2022-11-15T01:42:53;101250.11;;;16.44;45.22
34658;BME280;20865;43.312;27.152;2022-11-15T01:45:21;101247.89;;;16.44;45.23
34658;BME280;20865;43.312;27.152;2022-11-15T01:47:51;101252.02;;;16.42;45.42
34658;BME280;20865;43.312;27.152;2022-11-15T01:50:22;101250.66;;;16.42;45.44
34658;BME280;20865;43.312;27.152;2022-11-15T01:52:49;101246.26;;;16.40;45.59
34658;BME280;20865;43.312;27.152;2022-11-15T01:55:22;101240.67;;;16.44;45.63
34658;BME280;20865;43.312;27.152;2022-11-15T01:57:53;101239.28;;;16.46;45.45
34658;BME280;20865;43.312;27.152;2022-11-15T02:00:21;101231.70;;;16.44;45.38
34658;BME280;20865;43.312;27.152;2022-11-15T02:02:49;101228.66;;;16.41;45.66
34658;BME280;20865;43.312;27.152;2022-11-15T02:05:16;101225.09;;;16.41;45.72
34658;BME280;20865;43.312;27.152;2022-11-15T02:07:45;101223.37;;;16.38;45.92
34658;BME280;20865;43.312;27.152;2022-11-15T02:10:20;101223.54;;;16.46;45.79
34658;BME280;20865;43.312;27.152;2022-11-15T02:12:43;101219.09;;;16.44;45.86
34658;BME280;20865;43.312;27.152;2022-11-15T02:15:12;101219.50;;;16.46;45.80
34658;BME280;20865;43.312;27.152;2022-11-15T02:17:59;101214.10;;;16.46;46.00
34658;BME280;20865;43.312;27.152;2022-11-15T02:23:52;101212.91;;;16.42;46.04
34658;BME280;20865;43.312;27.152;2022-11-15T02:29:02;101202.91;;;16.44;46.00
34658;BME280;20865;43.312;27.152;2022-11-15T02:31:51;101206.09;;;16.44;46.03
34658;BME280;20865;43.312;27.152;2022-11-15T02:37:11;101200.62;;;16.46;45.88
34658;BME280;20865;43.312;27.152;2022-11-15T02:42:28;101204.41;;;16.30;46.14
34658;BME280;20865;43.312;27.152;2022-11-15T02:45:19;101202.08;;;16.32;46.24
34658;BME280;20865;43.312;27.152;2022-11-15T02:47:48;101204.10;;;16.37;46.27
34658;BME280;20865;43.312;27.152;2022-11-15T02:50:20;101198.23;;;16.38;46.35
34658;BME280;20865;43.312;27.152;2022-11-15T02:52:51;101202.12;;;16.31;46.56
34658;BME280;20865;43.312;27.152;2022-11-15T02:55:27;101201.41;;;16.37;46.49
34658;BME280;20865;43.312;27.152;2022-11-15T03:00:45;101193.47;;;16.44;46.42
34658;BME280;20865;43.312;27.152;2022-11-15T03:11:18;101193.13;;;16.42;46.18
34658;BME280;20865;43.312;27.152;2022-11-15T03:14:03;101192.68;;;16.42;46.07
34658;BME280;20865;43.312;27.152;2022-11-15T03:16:38;101192.25;;;16.41;46.14
34658;BME280;20865;43.312;27.152;2022-11-15T03:21:40;101196.65;;;16.44;46.11
34658;BME280;20865;43.312;27.152;2022-11-15T03:24:09;101198.87;;;16.44;46.10
34658;BME280;20865;43.312;27.152;2022-11-15T03:26:39;101190.38;;;16.43;46.01
34658;BME280;20865;43.312;27.152;2022-11-15T03:29:32;101188.55;;;16.44;46.01
34658;BME280;20865;43.312;27.152;2022-11-15T03:31:42;101186.81;;;16.43;46.04
34658;BME280;20865;43.312;27.152;2022-11-15T03:34:27;101187.28;;;16.42;45.87
34658;BME280;20865;43.312;27.152;2022-11-15T03:36:54;101180.19;;;16.40;45.99
34658;BME280;20865;43.312;27.152;2022-11-15T03:39:23;101183.28;;;16.41;45.98
34658;BME280;20865;43.312;27.152;2022-11-15T03:42:02;101174.72;;;16.41;45.96
34658;BME280;20865;43.312;27.152;2022-11-15T03:47:24;101167.46;;;16.43;45.88
34658;BME280;20865;43.312;27.152;2022-11-15T03:49:53;101168.41;;;16.42;45.88
34658;BME280;20865;43.312;27.152;2022-11-15T03:52:22;101164.01;;;16.40;46.05
34658;BME280;20865;43.312;27.152;2022-11-15T03:54:53;101161.95;;;16.35;46.22
34658;BME280;20865;43.312;27.152;2022-11-15T03:57:21;101164.05;;;16.38;46.14
34658;BME280;20865;43.312;27.152;2022-11-15T03:59:49;101156.31;;;16.41;46.20
34658;BME280;20865;43.312;27.152;2022-11-15T04:02:16;101152.07;;;16.35;46.26
34658;BME280;20865;43.312;27.152;2022-11-15T04:04:44;101151.92;;;16.38;46.15
34658;BME280;20865;43.312;27.152;2022-11-15T04:07:12;101156.72;;;16.42;46.13
34658;BME280;20865;43.312;27.152;2022-11-15T04:09:39;101152.27;;;16.41;46.11
34658;BME280;20865;43.312;27.152;2022-11-15T04:12:25;101155.36;;;16.42;46.05
34658;BME280;20865;43.312;27.152;2022-11-15T04:15:02;101150.80;;;16.44;46.04
34658;BME280;20865;43.312;27.152;2022-11-15T04:17:46;101153.50;;;16.44;46.07
34658;BME280;20865;43.312;27.152;2022-11-15T04:23:03;101158.06;;;16.42;46.11
34658;BME280;20865;43.312;27.152;2022-11-15T04:25:51;101152.39;;;16.38;46.14
34658;BME280;20865;43.312;27.152;2022-11-15T04:28:19;101141.09;;;16.40;46.13
34658;BME280;20865;43.312;27.152;2022-11-15T04:30:47;101139.98;;;16.34;46.15
34658;BME280;20865;43.312;27.152;2022-11-15T04:33:14;101138.11;;;16.36;46.20
34658;BME280;20865;43.312;27.152;2022-11-15T04:35:42;101142.83;;;16.41;46.13
34658;BME280;20865;43.312;27.152;2022-11-15T04:38:12;101137.80;;;16.43;46.00
34658;BME280;20865;43.312;27.152;2022-11-15T04:40:39;101145.33;;;16.46;45.79
34658;BME280;20865;43.312;27.152;2022-11-15T04:43:07;101141.84;;;16.43;45.76
34658;BME280;20865;43.312;27.152;2022-11-15T04:45:34;101146.23;;;16.46;45.86
34658;BME280;20865;43.312;27.152;2022-11-15T04:48:02;101147.98;;;16.47;45.76
34658;BME280;20865;43.312;27.152;2022-11-15T04:50:30;101145.41;;;16.44;45.88
34658;BME280;20865;43.312;27.152;2022-11-15T04:52:58;101151.08;;;16.48;45.80
34658;BME280;20865;43.312;27.152;2022-11-15T04:55:26;101144.45;;;16.45;45.95
34658;BME280;20865;43.312;27.152;2022-11-15T04:58:01;101148.94;;;16.46;46.00
34658;BME280;20865;43.312;27.152;2022-11-15T05:00:30;101138.67;;;16.44;45.99
34658;BME280;20865;43.312;27.152;2022-11-15T05:02:58;101139.11;;;16.33;46.08
34658;BME280;20865;43.312;27.152;2022-11-15T05:05:43;101148.19;;;16.31;46.27
34658;BME280;20865;43.312;27.152;2022-11-15T05:08:11;101142.75;;;16.32;46.31
34658;BME280;20865;43.312;27.152;2022-11-15T05:10:38;101135.66;;;16.30;46.36
34658;BME280;20865;43.312;27.152;2022-11-15T05:13:06;101131.22;;;16.29;46.46
34658;BME280;20865;43.312;27.152;2022-11-15T05:15:33;101131.85;;;16.35;46.28
34658;BME280;20865;43.312;27.152;2022-11-15T05:18:01;101135.94;;;16.34;46.37
34658;BME280;20865;43.312;27.152;2022-11-15T05:20:29;101135.54;;;16.33;46.53
34658;BME280;20865;43.312;27.152;2022-11-15T05:22:56;101136.41;;;16.33;46.54
34658;BME280;20865;43.312;27.152;2022-11-15T05:25:24;101142.91;;;16.39;46.53
34658;BME280;20865;43.312;27.152;2022-11-15T05:27:51;101137.64;;;16.36;46.50
34658;BME280;20865;43.312;27.152;2022-11-15T05:30:19;101140.69;;;16.39;46.49
34658;BME280;20865;43.312;27.152;2022-11-15T05:32:48;101134.75;;;16.41;46.50
34658;BME280;20865;43.312;27.152;2022-11-15T05:35:42;101142.95;;;16.38;46.35
34658;BME280;20865;43.312;27.152;2022-11-15T05:38:10;101146.95;;;16.39;46.43
34658;BME280;20865;43.312;27.152;2022-11-15T05:40:38;101140.61;;;16.40;46.31
34658;BME280;20865;43.312;27.152;2022-11-15T05:43:05;101134.75;;;16.41;46.47
34658;BME280;20865;43.312;27.152;2022-11-15T05:45:34;101137.01;;;16.30;46.79
34658;BME280;20865;43.312;27.152;2022-11-15T05:48:04;101134.12;;;16.34;46.68
34658;BME280;20865;43.312;27.152;2022-11-15T05:50:33;101133.52;;;16.38;46.76
34658;BME280;20865;43.312;27.152;2022-11-15T05:53:02;101130.34;;;16.38;46.69
34658;BME280;20865;43.312;27.152;2022-11-15T05:55:30;101136.05;;;16.42;46.38
34658;BME280;20865;43.312;27.152;2022-11-15T05:57:57;101142.23;;;16.44;46.37
34658;BME280;20865;43.312;27.152;2022-11-15T06:00:25;101142.19;;;16.46;46.16
34658;BME280;20865;43.312;27.152;2022-11-15T06:02:53;101147.78;;;16.52;46.02
34658;BME280;20865;43.312;27.152;2022-11-15T06:05:20;101146.23;;;16.46;46.11
34658;BME280;20865;43.312;27.152;2022-11-15T06:07:48;101148.14;;;16.54;46.23
34658;BME280;20865;43.312;27.152;2022-11-15T06:10:15;101149.61;;;16.51;46.00
34658;BME280;20865;43.312;27.152;2022-11-15T06:12:43;101152.18;;;16.54;46.01
34658;BME280;20865;43.312;27.152;2022-11-15T06:15:11;101155.23;;;16.57;46.04
34658;BME280;20865;43.312;27.152;2022-11-15T06:17:38;101153.66;;;16.51;46.06
34658;BME280;20865;43.312;27.152;2022-11-15T06:20:06;101144.69;;;16.51;46.02
34658;BME280;20865;43.312;27.152;2022-11-15T06:22:34;101143.69;;;16.53;45.87
34658;BME280;20865;43.312;27.152;2022-11-15T06:25:02;101152.93;;;16.58;46.12
34658;BME280;20865;43.312;27.152;2022-11-15T06:27:29;101145.71;;;16.58;46.26
34658;BME280;20865;43.312;27.152;2022-11-15T06:29:57;101143.89;;;16.59;46.32
34658;BME280;20865;43.312;27.152;2022-11-15T06:32:24;101149.76;;;16.58;46.42
34658;BME280;20865;43.312;27.152;2022-11-15T06:34:52;101148.53;;;16.55;46.41
34658;BME280;20865;43.312;27.152;2022-11-15T06:37:20;101151.11;;;16.58;46.37
34658;BME280;20865;43.312;27.152;2022-11-15T06:39:47;101146.71;;;16.56;46.43
34658;BME280;20865;43.312;27.152;2022-11-15T06:42:15;101151.58;;;16.58;46.25
34658;BME280;20865;43.312;27.152;2022-11-15T06:44:42;101153.16;;;16.63;46.16
34658;BME280;20865;43.312;27.152;2022-11-15T06:47:10;101155.66;;;16.68;46.03
34658;BME280;20865;43.312;27.152;2022-11-15T06:49:37;101154.97;;;16.73;45.91
34658;BME280;20865;43.312;27.152;2022-11-15T06:52:05;101148.44;;;16.68;45.58
34658;BME280;20865;43.312;27.152;2022-11-15T06:54:32;101155.45;;;16.73;45.33
34658;BME280;20865;43.312;27.152;2022-11-15T06:57:00;101149.78;;;16.68;45.02
34658;BME280;20865;43.312;27.152;2022-11-15T06:59:28;101148.41;;;16.58;45.10
34658;BME280;20865;43.312;27.152;2022-11-15T07:01:55;101151.50;;;16.59;45.31
34658;BME280;20865;43.312;27.152;2022-11-15T07:04:23;101154.03;;;16.64;45.75
34658;BME280;20865;43.312;27.152;2022-11-15T07:06:50;101144.91;;;16.66;45.38
34658;BME280;20865;43.312;27.152;2022-11-15T07:09:18;101150.73;;;16.67;45.51
34658;BME280;20865;43.312;27.152;2022-11-15T07:11:45;101147.61;;;16.66;45.58
34658;BME280;20865;43.312;27.152;2022-11-15T07:14:13;101150.73;;;16.67;45.42
34658;BME280;20865;43.312;27.152;2022-11-15T07:16:40;101152.33;;;16.61;45.44
34658;BME280;20865;43.312;27.152;2022-11-15T07:19:09;101151.20;;;16.67;45.64
34658;BME280;20865;43.312;27.152;2022-11-15T07:21:36;101151.41;;;16.73;45.29
34658;BME280;20865;43.312;27.152;2022-11-15T07:24:05;101150.61;;;16.71;45.50
34658;BME280;20865;43.312;27.152;2022-11-15T07:26:33;101151.66;;;16.66;45.36
34658;BME280;20865;43.312;27.152;2022-11-15T07:29:00;101143.03;;;16.68;45.42
34658;BME280;20865;43.312;27.152;2022-11-15T07:31:28;101146.69;;;16.67;45.59
34658;BME280;20865;43.312;27.152;2022-11-15T07:33:56;101143.31;;;16.73;45.54
34658;BME280;20865;43.312;27.152;2022-11-15T07:36:23;101152.53;;;16.79;45.90
34658;BME280;20865;43.312;27.152;2022-11-15T07:38:51;101147.53;;;16.80;45.96
34658;BME280;20865;43.312;27.152;2022-11-15T07:41:18;101149.36;;;16.79;45.56
34658;BME280;20865;43.312;27.152;2022-11-15T07:43:46;101147.67;;;16.87;45.37
34658;BME280;20865;43.312;27.152;2022-11-15T07:46:13;101142.24;;;16.99;45.25
34658;BME280;20865;43.312;27.152;2022-11-15T07:48:41;101144.81;;;17.02;45.29
34658;BME280;20865;43.312;27.152;2022-11-15T07:51:14;101135.16;;;17.06;45.60
34658;BME280;20865;43.312;27.152;2022-11-15T07:53:42;101136.55;;;17.05;45.23
34658;BME280;20865;43.312;27.152;2022-11-15T07:56:11;101130.98;;;17.09;44.98
34658;BME280;20865;43.312;27.152;2022-11-15T07:58:39;101133.80;;;17.17;44.80
34658;BME280;20865;43.312;27.152;2022-11-15T08:01:08;101135.95;;;17.19;44.89
34658;BME280;20865;43.312;27.152;2022-11-15T08:03:36;101133.85;;;17.25;44.66
34658;BME280;20865;43.312;27.152;2022-11-15T08:06:04;101134.20;;;17.28;44.54
34658;BME280;20865;43.312;27.152;2022-11-15T08:08:32;101136.42;;;17.28;44.72
34658;BME280;20865;43.312;27.152;2022-11-15T08:11:00;101130.95;;;17.40;44.17
34658;BME280;20865;43.312;27.152;2022-11-15T08:13:27;101132.76;;;17.39;43.90
34658;BME280;20865;43.312;27.152;2022-11-15T08:16:00;101127.83;;;17.39;43.63
34658;BME280;20865;43.312;27.152;2022-11-15T08:18:27;101125.95;;;17.41;43.72
34658;BME280;20865;43.312;27.152;2022-11-15T08:20:59;101126.30;;;17.44;44.03
34658;BME280;20865;43.312;27.152;2022-11-15T08:23:27;101125.56;;;17.40;44.11
34658;BME280;20865;43.312;27.152;2022-11-15T08:26:03;101122.55;;;17.46;44.10
34658;BME280;20865;43.312;27.152;2022-11-15T08:28:32;101128.25;;;17.50;44.29
34658;BME280;20865;43.312;27.152;2022-11-15T08:31:00;101125.49;;;17.60;43.98
34658;BME280;20865;43.312;27.152;2022-11-15T08:33:28;101130.28;;;17.64;43.68
34658;BME280;20865;43.312;27.152;2022-11-15T08:36:00;101123.52;;;17.64;43.46
34658;BME280;20865;43.312;27.152;2022-11-15T08:38:28;101121.64;;;17.66;43.59
34658;BME280;20865;43.312;27.152;2022-11-15T08:41:01;101119.28;;;17.69;43.58
34658;BME280;20865;43.312;27.152;2022-11-15T08:43:30;101112.72;;;17.64;43.57
34658;BME280;20865;43.312;27.152;2022-11-15T08:45:57;101107.85;;;17.72;43.31
34658;BME280;20865;43.312;27.152;2022-11-15T08:48:25;101112.78;;;17.73;43.46
34658;BME280;20865;43.312;27.152;2022-11-15T08:50:56;101101.09;;;17.72;43.10
34658;BME280;20865;43.312;27.152;2022-11-15T08:53:24;101096.70;;;17.70;43.15
34658;BME280;20865;43.312;27.152;2022-11-15T08:55:51;101088.94;;;17.72;43.33
34658;BME280;20865;43.312;27.152;2022-11-15T08:58:19;101084.94;;;17.71;42.85
34658;BME280;20865;43.312;27.152;2022-11-15T09:00:46;101083.92;;;17.73;43.11
34658;BME280;20865;43.312;27.152;2022-11-15T09:03:14;101079.77;;;17.76;42.88
34658;BME280;20865;43.312;27.152;2022-11-15T09:05:42;101074.13;;;17.81;42.86
34658;BME280;20865;43.312;27.152;2022-11-15T09:08:09;101071.17;;;17.77;42.92
34658;BME280;20865;43.312;27.152;2022-11-15T09:10:38;101070.22;;;17.78;42.95
34658;BME280;20865;43.312;27.152;2022-11-15T09:13:06;101068.19;;;17.73;42.60
34658;BME280;20865;43.312;27.152;2022-11-15T09:15:33;101060.31;;;17.78;42.31
34658;BME280;20865;43.312;27.152;2022-11-15T09:18:01;101054.67;;;17.83;42.42
34658;BME280;20865;43.312;27.152;2022-11-15T09:20:28;101051.88;;;17.76;42.37
34658;BME280;20865;43.312;27.152;2022-11-15T09:23:01;101052.52;;;17.71;42.64
34658;BME280;20865;43.312;27.152;2022-11-15T09:25:29;101060.91;;;17.75;42.69
34658;BME280;20865;43.312;27.152;2022-11-15T09:27:57;101052.06;;;17.71;42.64
34658;BME280;20865;43.312;27.152;2022-11-15T09:30:25;101054.83;;;17.70;42.26
34658;BME280;20865;43.312;27.152;2022-11-15T09:32:53;101042.52;;;17.73;42.18
34658;BME280;20865;43.312;27.152;2022-11-15T09:35:20;101037.12;;;17.73;42.35
34658;BME280;20865;43.312;27.152;2022-11-15T09:37:48;101045.50;;;17.77;42.63
34658;BME280;20865;43.312;27.152;2022-11-15T09:40:16;101038.21;;;17.79;42.65
34658;BME280;20865;43.312;27.152;2022-11-15T09:43:24;101034.02;;;17.82;42.38
34658;BME280;20865;43.312;27.152;2022-11-15T09:46:01;101036.72;;;17.82;42.45
34658;BME280;20865;43.312;27.152;2022-11-15T09:51:32;101027.65;;;17.83;42.54
34658;BME280;20865;43.312;27.152;2022-11-15T09:56:32;101023.94;;;17.75;42.33
34658;BME280;20865;43.312;27.152;2022-11-15T10:02:08;101024.42;;;17.75;42.53
34658;BME280;20865;43.312;27.152;2022-11-15T10:04:31;101025.33;;;17.65;42.40
34658;BME280;20865;43.312;27.152;2022-11-15T10:07:02;101023.75;;;17.70;42.38
34658;BME280;20865;43.312;27.152;2022-11-15T10:09:36;101008.84;;;17.71;43.18
34658;BME280;20865;43.312;27.152;2022-11-15T10:12:03;101015.89;;;17.74;42.88
34658;BME280;20865;43.312;27.152;2022-11-15T10:14:31;101008.97;;;17.78;42.77
34658;BME280;20865;43.312;27.152;2022-11-15T10:20:23;100999.81;;;17.81;42.50
34658;BME280;20865;43.312;27.152;2022-11-15T10:22:56;100996.23;;;17.80;42.48
34658;BME280;20865;43.312;27.152;2022-11-15T10:25:29;100987.35;;;17.87;42.90
34658;BME280;20865;43.312;27.152;2022-11-15T10:28:21;100977.59;;;17.93;42.84
34658;BME280;20865;43.312;27.152;2022-11-15T10:30:52;100972.58;;;17.94;42.65
34658;BME280;20865;43.312;27.152;2022-11-15T10:33:38;100969.73;;;17.97;42.75
34658;BME280;20865;43.312;27.152;2022-11-15T10:36:14;100961.59;;;17.89;42.54
34658;BME280;20865;43.312;27.152;2022-11-15T10:38:53;100957.11;;;18.06;42.07
34658;BME280;20865;43.312;27.152;2022-11-15T10:49:29;100939.20;;;18.13;42.55
34658;BME280;20865;43.312;27.152;2022-11-15T10:52:02;100936.20;;;18.10;41.80
34658;BME280;20865;43.312;27.152;2022-11-15T10:54:42;100929.67;;;18.14;41.76
34658;BME280;20865;43.312;27.152;2022-11-15T10:59:49;100917.97;;;18.22;42.34
34658;BME280;20865;43.312;27.152;2022-11-15T11:02:35;100921.00;;;18.25;41.90
34658;BME280;20865;43.312;27.152;2022-11-15T11:05:28;100910.58;;;18.26;41.72
34658;BME280;20865;43.312;27.152;2022-11-15T11:07:34;100907.71;;;18.29;41.78
34658;BME280;20865;43.312;27.152;2022-11-15T11:12:42;100896.25;;;18.32;41.74
34658;BME280;20865;43.312;27.152;2022-11-15T11:15:12;100889.43;;;18.34;41.51
34658;BME280;20865;43.312;27.152;2022-11-15T11:17:56;100885.98;;;18.39;41.55
34658;BME280;20865;43.312;27.152;2022-11-15T11:20:44;100884.73;;;18.38;41.50
34658;BME280;20865;43.312;27.152;2022-11-15T11:31:31;100868.08;;;18.45;41.59
34658;BME280;20865;43.312;27.152;2022-11-15T11:37:03;100856.68;;;18.47;40.91
34658;BME280;20865;43.312;27.152;2022-11-15T11:39:44;100857.10;;;18.48;41.27
34658;BME280;20865;43.312;27.152;2022-11-15T11:42:26;100850.72;;;18.49;41.61
34658;BME280;20865;43.312;27.152;2022-11-15T11:45:05;100848.08;;;18.56;41.24
34658;BME280;20865;43.312;27.152;2022-11-15T11:47:31;100851.64;;;18.66;41.08
34658;BME280;20865;43.312;27.152;2022-11-15T11:50:23;100849.70;;;18.68;41.10
34658;BME280;20865;43.312;27.152;2022-11-15T11:52:33;100843.91;;;18.67;40.97
34658;BME280;20865;43.312;27.152;2022-11-15T12:00:23;100832.94;;;18.61;40.90
34658;BME280;20865;43.312;27.152;2022-11-15T12:03:14;100822.58;;;18.69;40.57
34658;BME280;20865;43.312;27.152;2022-11-15T12:05:46;100827.37;;;18.73;41.02
34658;BME280;20865;43.312;27.152;2022-11-15T12:08:47;100822.65;;;18.68;40.80
34658;BME280;20865;43.312;27.152;2022-11-15T12:11:28;100824.66;;;18.64;41.07
34658;BME280;20865;43.312;27.152;2022-11-15T12:13:53;100823.95;;;18.61;41.37
34658;BME280;20865;43.312;27.152;2022-11-15T12:16:29;100827.62;;;18.60;41.37
34658;BME280;20865;43.312;27.152;2022-11-15T12:18:59;100817.66;;;18.60;41.44
34658;BME280;20865;43.312;27.152;2022-11-15T12:21:38;100813.44;;;18.63;41.56
34658;BME280;20865;43.312;27.152;2022-11-15T12:24:19;100809.45;;;18.62;41.75
34658;BME280;20865;43.312;27.152;2022-11-15T12:29:41;100798.55;;;18.72;41.18
34658;BME280;20865;43.312;27.152;2022-11-15T12:32:33;100790.42;;;18.72;41.35
34658;BME280;20865;43.312;27.152;2022-11-15T12:34:56;100786.77;;;18.64;41.70
34658;BME280;20865;43.312;27.152;2022-11-15T12:42:42;100779.35;;;18.68;41.79
34658;BME280;20865;43.312;27.152;2022-11-15T12:50:56;100771.48;;;18.72;41.78
34658;BME280;20865;43.312;27.152;2022-11-15T12:58:42;100754.18;;;18.83;41.65
34658;BME280;20865;43.312;27.152;2022-11-15T13:07:00;100757.34;;;18.98;41.48
34658;BME280;20865;43.312;27.152;2022-11-15T13:12:11;100753.31;;;19.06;41.38
34658;BME280;20865;43.312;27.152;2022-11-15T13:17:23;100743.05;;;19.03;41.25
34658;BME280;20865;43.312;27.152;2022-11-15T13:19:42;100738.11;;;19.03;41.57
34658;BME280;20865;43.312;27.152;2022-11-15T13:22:10;100738.42;;;19.06;40.94
34658;BME280;20865;43.312;27.152;2022-11-15T13:24:56;100735.13;;;19.00;41.07
34658;BME280;20865;43.312;27.152;2022-11-15T13:27:25;100728.61;;;18.96;41.33
34658;BME280;20865;43.312;27.152;2022-11-15T13:29:53;100726.00;;;18.94;41.54
34658;BME280;20865;43.312;27.152;2022-11-15T13:32:21;100727.53;;;18.91;41.42
34658;BME280;20865;43.312;27.152;2022-11-15T13:34:50;100726.56;;;18.92;41.75
34658;BME280;20865;43.312;27.152;2022-11-15T13:39:53;100723.47;;;18.91;41.97
34658;BME280;20865;43.312;27.152;2022-11-15T13:42:21;100718.06;;;18.91;42.17
34658;BME280;20865;43.312;27.152;2022-11-15T13:44:58;100714.55;;;18.89;42.07
34658;BME280;20865;43.312;27.152;2022-11-15T13:47:28;100712.33;;;18.89;41.95
34658;BME280;20865;43.312;27.152;2022-11-15T13:49:59;100719.97;;;18.89;41.58
34658;BME280;20865;43.312;27.152;2022-11-15T13:52:32;100715.04;;;18.89;41.77
34658;BME280;20865;43.312;27.152;2022-11-15T13:57:58;100711.16;;;18.86;41.85
34658;BME280;20865;43.312;27.152;2022-11-15T14:00:40;100700.88;;;18.76;41.71
34658;BME280;20865;43.312;27.152;2022-11-15T14:05:43;100696.67;;;18.55;41.92
34658;BME280;20865;43.312;27.152;2022-11-15T14:10:44;100698.31;;;18.57;42.26
34658;BME280;20865;43.312;27.152;2022-11-15T14:13:30;100696.78;;;18.61;42.18
34658;BME280;20865;43.312;27.152;2022-11-15T14:18:48;100692.64;;;18.46;42.31
34658;BME280;20865;43.312;27.152;2022-11-15T14:21:17;100689.23;;;18.43;42.81
34658;BME280;20865;43.312;27.152;2022-11-15T14:23:46;100694.75;;;18.41;43.12
34658;BME280;20865;43.312;27.152;2022-11-15T14:26:32;100690.06;;;18.36;43.06
34658;BME280;20865;43.312;27.152;2022-11-15T14:29:25;100688.97;;;18.31;43.11
34658;BME280;20865;43.312;27.152;2022-11-15T14:32:05;100688.33;;;18.35;43.43
34658;BME280;20865;43.312;27.152;2022-11-15T14:34:23;100682.53;;;18.34;43.34
34658;BME280;20865;43.312;27.152;2022-11-15T14:36:50;100677.84;;;18.29;43.41
34658;BME280;20865;43.312;27.152;2022-11-15T14:39:18;100673.57;;;18.25;43.56
34658;BME280;20865;43.312;27.152;2022-11-15T14:41:46;100666.28;;;18.18;43.20
34658;BME280;20865;43.312;27.152;2022-11-15T14:44:13;100670.02;;;18.16;43.29
34658;BME280;20865;43.312;27.152;2022-11-15T14:46:42;100664.49;;;18.10;43.21
34658;BME280;20865;43.312;27.152;2022-11-15T14:49:10;100665.53;;;18.07;43.32
34658;BME280;20865;43.312;27.152;2022-11-15T14:51:39;100660.84;;;18.02;43.46
34658;BME280;20865;43.312;27.152;2022-11-15T14:54:12;100657.53;;;17.97;43.43